sensor_id;sensor_type;location;lat;lon;timestamp;temperature;humidity
10042;DHT22;5061;49.068;12.058;2022-08-23T00:00:15;16.40;93.40
10042;DHT22;5061;49.068;12.058;2022-08-23T00:03:36;16.40;93.50
10042;DHT22;5061;49.068;12.058;2022-08-23T00:06:58;16.40;93.50
10042;DHT22;5061;49.068;12.058;2022-08-23T00:10:19;16.30;93.40
10042;DHT22;5061;49.068;12.058;2022-08-23T00:13:40;16.30;93.50
10042;DHT22;5061;49.068;12.058;2022-08-23T00:17:00;16.30;93.50
10042;DHT22;5061;49.068;12.058;2022-08-23T00:20:21;16.20;93.60
10042;DHT22;5061;49.068;12.058;2022-08-23T00:23:41;16.20;93.60
10042;DHT22;5061;49.068;12.058;2022-08-23T00:27:07;16.20;93.70
10042;DHT22;5061;49.068;12.058;2022-08-23T00:30:28;16.20;93.70
10042;DHT22;5061;49.068;12.058;2022-08-23T00:33:49;16.10;93.70
10042;DHT22;5061;49.068;12.058;2022-08-23T00:37:10;16.10;93.80
10042;DHT22;5061;49.068;12.058;2022-08-23T00:40:31;16.00;93.80
10042;DHT22;5061;49.068;12.058;2022-08-23T00:43:52;16.00;93.90
10042;DHT22;5061;49.068;12.058;2022-08-23T00:47:32;16.00;94.20
10042;DHT22;5061;49.068;12.058;2022-08-23T00:51:26;15.90;93.90
10042;DHT22;5061;49.068;12.058;2022-08-23T00:54:51;15.90;94.00
10042;DHT22;5061;49.068;12.058;2022-08-23T00:58:16;15.80;94.40
10042;DHT22;5061;49.068;12.058;2022-08-23T01:01:38;15.70;94.10
10042;DHT22;5061;49.068;12.058;2022-08-23T01:04:59;15.70;94.30
10042;DHT22;5061;49.068;12.058;2022-08-23T01:08:22;15.70;94.40
10042;DHT22;5061;49.068;12.058;2022-08-23T01:11:53;15.60;94.30
10042;DHT22;5061;49.068;12.058;2022-08-23T01:15:31;15.70;94.40
10042;DHT22;5061;49.068;12.058;2022-08-23T01:18:55;15.60;94.50
10042;DHT22;5061;49.068;12.058;2022-08-23T01:25:53;15.50;94.50
10042;DHT22;5061;49.068;12.058;2022-08-23T01:29:14;15.50;94.60
10042;DHT22;5061;49.068;12.058;2022-08-23T01:32:42;15.50;94.70
10042;DHT22;5061;49.068;12.058;2022-08-23T01:36:05;15.50;94.70
10042;DHT22;5061;49.068;12.058;2022-08-23T01:39:26;15.40;94.70
10042;DHT22;5061;49.068;12.058;2022-08-23T01:42:47;15.40;94.80
10042;DHT22;5061;49.068;12.058;2022-08-23T01:46:11;15.30;94.70
10042;DHT22;5061;49.068;12.058;2022-08-23T01:49:33;15.30;94.80
10042;DHT22;5061;49.068;12.058;2022-08-23T01:52:54;15.30;94.90
10042;DHT22;5061;49.068;12.058;2022-08-23T01:56:16;15.20;94.80
10042;DHT22;5061;49.068;12.058;2022-08-23T01:59:39;15.20;94.90
10042;DHT22;5061;49.068;12.058;2022-08-23T02:03:02;15.20;95.00
10042;DHT22;5061;49.068;12.058;2022-08-23T02:06:24;15.10;94.90
10042;DHT22;5061;49.068;12.058;2022-08-23T02:09:44;15.10;95.00
10042;DHT22;5061;49.068;12.058;2022-08-23T02:13:05;15.00;95.00
10042;DHT22;5061;49.068;12.058;2022-08-23T02:16:32;15.00;95.10
10042;DHT22;5061;49.068;12.058;2022-08-23T02:19:55;15.00;95.10
10042;DHT22;5061;49.068;12.058;2022-08-23T02:23:16;14.90;95.10
10042;DHT22;5061;49.068;12.058;2022-08-23T02:26:39;14.90;95.10
10042;DHT22;5061;49.068;12.058;2022-08-23T02:30:00;14.90;95.10
10042;DHT22;5061;49.068;12.058;2022-08-23T02:33:20;14.90;95.10
10042;DHT22;5061;49.068;12.058;2022-08-23T02:36:42;14.80;95.10
10042;DHT22;5061;49.068;12.058;2022-08-23T02:40:05;14.80;95.10
10042;DHT22;5061;49.068;12.058;2022-08-23T02:43:26;14.80;95.20
10042;DHT22;5061;49.068;12.058;2022-08-23T02:46:46;14.70;95.30
10042;DHT22;5061;49.068;12.058;2022-08-23T02:50:08;14.70;95.30
10042;DHT22;5061;49.068;12.058;2022-08-23T02:53:29;14.70;95.40
10042;DHT22;5061;49.068;12.058;2022-08-23T02:56:50;14.60;95.30
10042;DHT22;5061;49.068;12.058;2022-08-23T03:00:13;14.60;95.40
10042;DHT22;5061;49.068;12.058;2022-08-23T03:03:35;14.60;95.50
10042;DHT22;5061;49.068;12.058;2022-08-23T03:06:56;14.50;95.50
10042;DHT22;5061;49.068;12.058;2022-08-23T03:10:16;14.50;95.60
10042;DHT22;5061;49.068;12.058;2022-08-23T03:13:37;14.50;95.60
10042;DHT22;5061;49.068;12.058;2022-08-23T03:16:59;14.50;95.70
10042;DHT22;5061;49.068;12.058;2022-08-23T03:20:20;14.50;95.80
10042;DHT22;5061;49.068;12.058;2022-08-23T03:23:41;14.50;95.80
10042;DHT22;5061;49.068;12.058;2022-08-23T03:27:02;14.50;95.70
10042;DHT22;5061;49.068;12.058;2022-08-23T03:30:23;14.50;95.70
10042;DHT22;5061;49.068;12.058;2022-08-23T03:33:44;14.50;95.90
10042;DHT22;5061;49.068;12.058;2022-08-23T03:37:04;14.40;95.60
10042;DHT22;5061;49.068;12.058;2022-08-23T03:40:25;14.40;95.70
10042;DHT22;5061;49.068;12.058;2022-08-23T03:43:46;14.30;95.70
10042;DHT22;5061;49.068;12.058;2022-08-23T03:47:06;14.30;95.90
10042;DHT22;5061;49.068;12.058;2022-08-23T03:50:27;14.20;95.90
10042;DHT22;5061;49.068;12.058;2022-08-23T03:53:49;14.20;95.70
10042;DHT22;5061;49.068;12.058;2022-08-23T03:57:09;14.10;95.70
10042;DHT22;5061;49.068;12.058;2022-08-23T04:00:30;14.10;95.70
10042;DHT22;5061;49.068;12.058;2022-08-23T04:03:51;14.00;95.80
10042;DHT22;5061;49.068;12.058;2022-08-23T04:07:11;14.00;96.10
10042;DHT22;5061;49.068;12.058;2022-08-23T04:10:32;14.00;95.90
10042;DHT22;5061;49.068;12.058;2022-08-23T04:13:53;13.90;96.00
10042;DHT22;5061;49.068;12.058;2022-08-23T04:17:14;13.90;96.00
10042;DHT22;5061;49.068;12.058;2022-08-23T04:20:35;13.90;96.10
10042;DHT22;5061;49.068;12.058;2022-08-23T04:23:58;13.90;96.10
10042;DHT22;5061;49.068;12.058;2022-08-23T04:27:19;13.90;96.20
10042;DHT22;5061;49.068;12.058;2022-08-23T04:30:41;13.90;96.20
10042;DHT22;5061;49.068;12.058;2022-08-23T04:34:02;13.90;96.20
10042;DHT22;5061;49.068;12.058;2022-08-23T04:37:23;13.90;96.20
10042;DHT22;5061;49.068;12.058;2022-08-23T04:40:44;13.90;96.30
10042;DHT22;5061;49.068;12.058;2022-08-23T04:44:23;13.80;96.30
10042;DHT22;5061;49.068;12.058;2022-08-23T04:47:44;13.80;96.30
10042;DHT22;5061;49.068;12.058;2022-08-23T04:51:04;13.80;96.30
10042;DHT22;5061;49.068;12.058;2022-08-23T04:54:25;13.80;96.30
10042;DHT22;5061;49.068;12.058;2022-08-23T04:57:46;13.80;96.40
10042;DHT22;5061;49.068;12.058;2022-08-23T05:01:08;13.80;96.40
10042;DHT22;5061;49.068;12.058;2022-08-23T05:04:30;13.80;96.50
10042;DHT22;5061;49.068;12.058;2022-08-23T05:07:50;13.80;96.50
10042;DHT22;5061;49.068;12.058;2022-08-23T05:11:11;13.70;96.60
10042;DHT22;5061;49.068;12.058;2022-08-23T05:14:32;13.80;97.00
10042;DHT22;5061;49.068;12.058;2022-08-23T05:17:52;13.80;96.80
10042;DHT22;5061;49.068;12.058;2022-08-23T05:21:19;13.80;97.00
10042;DHT22;5061;49.068;12.058;2022-08-23T05:24:40;13.80;97.00
10042;DHT22;5061;49.068;12.058;2022-08-23T05:28:00;13.80;97.30
10042;DHT22;5061;49.068;12.058;2022-08-23T05:31:25;13.80;97.20
10042;DHT22;5061;49.068;12.058;2022-08-23T05:34:46;13.80;97.30
10042;DHT22;5061;49.068;12.058;2022-08-23T05:38:06;13.80;97.30
10042;DHT22;5061;49.068;12.058;2022-08-23T05:41:27;13.90;97.40
10042;DHT22;5061;49.068;12.058;2022-08-23T05:44:47;13.90;97.50
10042;DHT22;5061;49.068;12.058;2022-08-23T05:48:08;13.90;97.50
10042;DHT22;5061;49.068;12.058;2022-08-23T05:51:31;13.90;97.50
10042;DHT22;5061;49.068;12.058;2022-08-23T05:54:52;14.00;97.80
10042;DHT22;5061;49.068;12.058;2022-08-23T05:58:12;14.10;97.90
10042;DHT22;5061;49.068;12.058;2022-08-23T06:01:34;14.10;98.00
10042;DHT22;5061;49.068;12.058;2022-08-23T06:04:55;14.20;98.00
10042;DHT22;5061;49.068;12.058;2022-08-23T06:08:15;14.30;98.10
10042;DHT22;5061;49.068;12.058;2022-08-23T06:11:36;14.40;98.10
10042;DHT22;5061;49.068;12.058;2022-08-23T06:14:57;14.50;98.10
10042;DHT22;5061;49.068;12.058;2022-08-23T06:18:17;14.50;98.10
10042;DHT22;5061;49.068;12.058;2022-08-23T06:21:40;14.50;98.20
10042;DHT22;5061;49.068;12.058;2022-08-23T06:25:01;14.50;98.20
10042;DHT22;5061;49.068;12.058;2022-08-23T06:28:23;14.50;98.50
10042;DHT22;5061;49.068;12.058;2022-08-23T06:31:46;14.50;98.30
10042;DHT22;5061;49.068;12.058;2022-08-23T06:35:10;14.60;98.40
10042;DHT22;5061;49.068;12.058;2022-08-23T06:38:31;14.60;98.40
10042;DHT22;5061;49.068;12.058;2022-08-23T06:41:52;14.70;98.50
10042;DHT22;5061;49.068;12.058;2022-08-23T06:45:16;14.70;98.50
10042;DHT22;5061;49.068;12.058;2022-08-23T06:48:37;14.80;98.50
10042;DHT22;5061;49.068;12.058;2022-08-23T06:51:59;14.90;98.50
10042;DHT22;5061;49.068;12.058;2022-08-23T06:55:20;14.90;98.50
10042;DHT22;5061;49.068;12.058;2022-08-23T06:58:41;15.00;98.50
10042;DHT22;5061;49.068;12.058;2022-08-23T07:02:05;15.10;98.60
10042;DHT22;5061;49.068;12.058;2022-08-23T07:05:26;15.10;98.60
10042;DHT22;5061;49.068;12.058;2022-08-23T07:08:46;15.20;98.60
10042;DHT22;5061;49.068;12.058;2022-08-23T07:12:07;15.20;98.60
10042;DHT22;5061;49.068;12.058;2022-08-23T07:15:28;15.30;98.60
10042;DHT22;5061;49.068;12.058;2022-08-23T07:18:48;15.30;98.60
10042;DHT22;5061;49.068;12.058;2022-08-23T07:22:09;15.40;98.60
10042;DHT22;5061;49.068;12.058;2022-08-23T07:25:30;15.50;98.70
10042;DHT22;5061;49.068;12.058;2022-08-23T07:28:51;15.50;98.70
10042;DHT22;5061;49.068;12.058;2022-08-23T07:32:12;15.60;98.70
10042;DHT22;5061;49.068;12.058;2022-08-23T07:35:33;15.60;98.70
10042;DHT22;5061;49.068;12.058;2022-08-23T07:38:55;15.70;98.70
10042;DHT22;5061;49.068;12.058;2022-08-23T07:42:16;15.80;98.80
10042;DHT22;5061;49.068;12.058;2022-08-23T07:45:39;15.80;98.80
10042;DHT22;5061;49.068;12.058;2022-08-23T07:49:01;15.90;98.80
10042;DHT22;5061;49.068;12.058;2022-08-23T07:52:23;15.90;98.70
10042;DHT22;5061;49.068;12.058;2022-08-23T07:55:43;16.00;98.70
10042;DHT22;5061;49.068;12.058;2022-08-23T07:59:05;16.00;98.90
10042;DHT22;5061;49.068;12.058;2022-08-23T08:02:26;16.10;98.50
10042;DHT22;5061;49.068;12.058;2022-08-23T08:05:47;16.10;98.40
10042;DHT22;5061;49.068;12.058;2022-08-23T08:09:09;16.20;98.40
10042;DHT22;5061;49.068;12.058;2022-08-23T08:12:30;16.20;98.30
10042;DHT22;5061;49.068;12.058;2022-08-23T08:15:52;16.40;98.60
10042;DHT22;5061;49.068;12.058;2022-08-23T08:19:14;16.50;98.20
10042;DHT22;5061;49.068;12.058;2022-08-23T08:22:36;16.60;98.20
10042;DHT22;5061;49.068;12.058;2022-08-23T08:26:05;16.70;98.00
10042;DHT22;5061;49.068;12.058;2022-08-23T08:29:26;16.80;97.90
10042;DHT22;5061;49.068;12.058;2022-08-23T08:32:47;17.00;97.50
10042;DHT22;5061;49.068;12.058;2022-08-23T08:36:08;17.00;97.40
10042;DHT22;5061;49.068;12.058;2022-08-23T08:39:46;17.20;96.30
10042;DHT22;5061;49.068;12.058;2022-08-23T08:46:51;17.50;96.00
10042;DHT22;5061;49.068;12.058;2022-08-23T08:50:35;17.50;95.90
10042;DHT22;5061;49.068;12.058;2022-08-23T08:53:58;17.60;95.40
10042;DHT22;5061;49.068;12.058;2022-08-23T08:57:21;17.80;94.90
10042;DHT22;5061;49.068;12.058;2022-08-23T09:00:44;17.90;94.00
10042;DHT22;5061;49.068;12.058;2022-08-23T09:04:06;18.10;94.20
10042;DHT22;5061;49.068;12.058;2022-08-23T09:18:25;18.30;94.00
10042;DHT22;5061;49.068;12.058;2022-08-23T09:21:57;18.40;93.50
10042;DHT22;5061;49.068;12.058;2022-08-23T09:25:19;18.60;93.30
10042;DHT22;5061;49.068;12.058;2022-08-23T09:28:39;18.60;93.00
10042;DHT22;5061;49.068;12.058;2022-08-23T09:32:06;18.70;92.30
10042;DHT22;5061;49.068;12.058;2022-08-23T09:35:27;18.90;92.40
10042;DHT22;5061;49.068;12.058;2022-08-23T09:38:56;19.00;91.60
10042;DHT22;5061;49.068;12.058;2022-08-23T09:42:26;19.00;91.40
10042;DHT22;5061;49.068;12.058;2022-08-23T09:49:28;19.20;91.20
10042;DHT22;5061;49.068;12.058;2022-08-23T09:52:49;19.30;91.50
10042;DHT22;5061;49.068;12.058;2022-08-23T09:56:17;19.50;91.10
10042;DHT22;5061;49.068;12.058;2022-08-23T09:59:44;19.50;91.20
10042;DHT22;5061;49.068;12.058;2022-08-23T10:03:25;19.50;91.10
10042;DHT22;5061;49.068;12.058;2022-08-23T10:06:47;19.60;91.20
10042;DHT22;5061;49.068;12.058;2022-08-23T10:13:53;19.90;91.20
10042;DHT22;5061;49.068;12.058;2022-08-23T10:17:31;20.00;91.30
10042;DHT22;5061;49.068;12.058;2022-08-23T10:21:22;20.10;91.20
10042;DHT22;5061;49.068;12.058;2022-08-23T10:39:28;21.00;90.60
10042;DHT22;5061;49.068;12.058;2022-08-23T10:43:32;21.20;90.70
10042;DHT22;5061;49.068;12.058;2022-08-23T10:46:38;21.40;90.40
10042;DHT22;5061;49.068;12.058;2022-08-23T10:50:10;21.60;90.20
10042;DHT22;5061;49.068;12.058;2022-08-23T10:53:44;21.80;90.20
10042;DHT22;5061;49.068;12.058;2022-08-23T10:57:06;22.00;89.90
10042;DHT22;5061;49.068;12.058;2022-08-23T11:00:27;22.20;89.20
10042;DHT22;5061;49.068;12.058;2022-08-23T11:07:31;22.50;88.50
10042;DHT22;5061;49.068;12.058;2022-08-23T11:10:53;22.60;88.10
10042;DHT22;5061;49.068;12.058;2022-08-23T11:14:35;22.80;88.20
10042;DHT22;5061;49.068;12.058;2022-08-23T11:18:00;23.00;87.70
10042;DHT22;5061;49.068;12.058;2022-08-23T11:25:05;23.40;87.20
10042;DHT22;5061;49.068;12.058;2022-08-23T11:28:45;23.50;86.40
10042;DHT22;5061;49.068;12.058;2022-08-23T11:35:39;23.80;82.80
10042;DHT22;5061;49.068;12.058;2022-08-23T11:39:10;23.80;82.70
10042;DHT22;5061;49.068;12.058;2022-08-23T11:49:49;24.20;82.20
10042;DHT22;5061;49.068;12.058;2022-08-23T12:04:06;24.40;77.60
10042;DHT22;5061;49.068;12.058;2022-08-23T12:07:44;24.40;77.60
10042;DHT22;5061;49.068;12.058;2022-08-23T12:11:08;24.50;77.50
10042;DHT22;5061;49.068;12.058;2022-08-23T12:18:11;24.80;76.60
10042;DHT22;5061;49.068;12.058;2022-08-23T12:25:04;25.00;75.90
10042;DHT22;5061;49.068;12.058;2022-08-23T12:28:34;25.10;75.10
10042;DHT22;5061;49.068;12.058;2022-08-23T12:42:41;25.80;73.20
10042;DHT22;5061;49.068;12.058;2022-08-23T12:46:02;25.90;73.30
10042;DHT22;5061;49.068;12.058;2022-08-23T12:49:29;26.00;71.50
10042;DHT22;5061;49.068;12.058;2022-08-23T12:53:02;26.10;72.30
10042;DHT22;5061;49.068;12.058;2022-08-23T12:56:26;26.20;72.50
10042;DHT22;5061;49.068;12.058;2022-08-23T13:00:39;26.30;73.80
10042;DHT22;5061;49.068;12.058;2022-08-23T13:03:43;26.50;72.40
10042;DHT22;5061;49.068;12.058;2022-08-23T13:07:09;26.60;71.90
10042;DHT22;5061;49.068;12.058;2022-08-23T13:10:31;26.80;73.20
10042;DHT22;5061;49.068;12.058;2022-08-23T13:13:52;27.10;73.10
10042;DHT22;5061;49.068;12.058;2022-08-23T13:20:46;27.40;73.30
10042;DHT22;5061;49.068;12.058;2022-08-23T13:24:32;27.50;72.70
10042;DHT22;5061;49.068;12.058;2022-08-23T13:28:05;27.50;71.20
10042;DHT22;5061;49.068;12.058;2022-08-23T13:31:57;27.50;68.20
10042;DHT22;5061;49.068;12.058;2022-08-23T13:39:04;27.50;68.70
10042;DHT22;5061;49.068;12.058;2022-08-23T13:42:40;27.70;69.40
10042;DHT22;5061;49.068;12.058;2022-08-23T13:49:35;27.60;67.70
10042;DHT22;5061;49.068;12.058;2022-08-23T13:52:56;27.60;67.20
10042;DHT22;5061;49.068;12.058;2022-08-23T13:56:18;27.80;67.40
10042;DHT22;5061;49.068;12.058;2022-08-23T13:59:45;28.00;68.10
10042;DHT22;5061;49.068;12.058;2022-08-23T14:03:07;28.20;67.80
10042;DHT22;5061;49.068;12.058;2022-08-23T14:06:28;28.50;67.80
10042;DHT22;5061;49.068;12.058;2022-08-23T14:09:48;28.70;67.20
10042;DHT22;5061;49.068;12.058;2022-08-23T14:13:09;28.90;68.10
10042;DHT22;5061;49.068;12.058;2022-08-23T14:16:33;29.10;64.70
10042;DHT22;5061;49.068;12.058;2022-08-23T14:19:54;29.10;65.10
10042;DHT22;5061;49.068;12.058;2022-08-23T14:23:15;29.00;65.50
10042;DHT22;5061;49.068;12.058;2022-08-23T14:26:35;29.00;64.10
10042;DHT22;5061;49.068;12.058;2022-08-23T14:29:56;29.00;65.00
10042;DHT22;5061;49.068;12.058;2022-08-23T14:33:17;29.00;64.40
10042;DHT22;5061;49.068;12.058;2022-08-23T14:36:39;29.00;63.60
10042;DHT22;5061;49.068;12.058;2022-08-23T14:40:00;28.90;64.20
10042;DHT22;5061;49.068;12.058;2022-08-23T14:43:21;28.90;64.90
10042;DHT22;5061;49.068;12.058;2022-08-23T14:46:43;28.90;65.00
10042;DHT22;5061;49.068;12.058;2022-08-23T14:50:06;28.90;65.30
10042;DHT22;5061;49.068;12.058;2022-08-23T14:53:30;28.90;65.10
10042;DHT22;5061;49.068;12.058;2022-08-23T14:56:51;28.90;65.10
10042;DHT22;5061;49.068;12.058;2022-08-23T15:00:12;28.80;65.00
10042;DHT22;5061;49.068;12.058;2022-08-23T15:03:33;28.60;65.10
10042;DHT22;5061;49.068;12.058;2022-08-23T15:06:54;28.60;64.40
10042;DHT22;5061;49.068;12.058;2022-08-23T15:10:17;28.50;64.10
10042;DHT22;5061;49.068;12.058;2022-08-23T15:13:41;28.30;64.20
10042;DHT22;5061;49.068;12.058;2022-08-23T15:17:03;28.10;64.40
10042;DHT22;5061;49.068;12.058;2022-08-23T15:20:27;27.80;64.20
10042;DHT22;5061;49.068;12.058;2022-08-23T15:23:49;27.50;64.40
10042;DHT22;5061;49.068;12.058;2022-08-23T15:27:09;27.20;64.30
10042;DHT22;5061;49.068;12.058;2022-08-23T15:30:30;27.00;64.20
10042;DHT22;5061;49.068;12.058;2022-08-23T15:33:50;26.80;64.50
10042;DHT22;5061;49.068;12.058;2022-08-23T15:37:12;26.60;64.60
10042;DHT22;5061;49.068;12.058;2022-08-23T15:40:33;26.50;64.70
10042;DHT22;5061;49.068;12.058;2022-08-23T15:43:53;26.50;64.80
10042;DHT22;5061;49.068;12.058;2022-08-23T15:47:26;26.50;64.80
10042;DHT22;5061;49.068;12.058;2022-08-23T15:50:47;26.30;64.70
10042;DHT22;5061;49.068;12.058;2022-08-23T15:54:09;26.20;64.90
10042;DHT22;5061;49.068;12.058;2022-08-23T15:57:31;26.00;64.80
10042;DHT22;5061;49.068;12.058;2022-08-23T16:00:55;25.90;64.90
10042;DHT22;5061;49.068;12.058;2022-08-23T16:04:16;26.00;65.00
10042;DHT22;5061;49.068;12.058;2022-08-23T16:07:39;26.00;64.90
10042;DHT22;5061;49.068;12.058;2022-08-23T16:11:01;26.00;65.10
10042;DHT22;5061;49.068;12.058;2022-08-23T16:14:24;25.90;65.10
10042;DHT22;5061;49.068;12.058;2022-08-23T16:17:45;25.90;65.20
10042;DHT22;5061;49.068;12.058;2022-08-23T16:21:05;26.00;65.10
10042;DHT22;5061;49.068;12.058;2022-08-23T16:24:26;25.80;64.80
10042;DHT22;5061;49.068;12.058;2022-08-23T16:27:50;25.70;64.90
10042;DHT22;5061;49.068;12.058;2022-08-23T16:31:11;25.60;65.00
10042;DHT22;5061;49.068;12.058;2022-08-23T16:34:32;25.50;65.10
10042;DHT22;5061;49.068;12.058;2022-08-23T16:37:53;25.30;66.00
10042;DHT22;5061;49.068;12.058;2022-08-23T16:41:14;25.30;67.00
10042;DHT22;5061;49.068;12.058;2022-08-23T16:44:35;25.20;67.60
10042;DHT22;5061;49.068;12.058;2022-08-23T16:47:56;25.10;68.20
10042;DHT22;5061;49.068;12.058;2022-08-23T16:51:17;25.00;68.80
10042;DHT22;5061;49.068;12.058;2022-08-23T16:58:01;24.80;69.80
10042;DHT22;5061;49.068;12.058;2022-08-23T17:01:22;24.60;70.00
10042;DHT22;5061;49.068;12.058;2022-08-23T17:04:43;24.60;70.50
10042;DHT22;5061;49.068;12.058;2022-08-23T17:08:04;24.50;70.90
10042;DHT22;5061;49.068;12.058;2022-08-23T17:11:26;24.40;71.30
10042;DHT22;5061;49.068;12.058;2022-08-23T17:14:50;24.40;71.70
10042;DHT22;5061;49.068;12.058;2022-08-23T17:18:11;24.30;72.60
10042;DHT22;5061;49.068;12.058;2022-08-23T17:21:31;24.30;73.00
10042;DHT22;5061;49.068;12.058;2022-08-23T17:24:52;24.20;72.60
10042;DHT22;5061;49.068;12.058;2022-08-23T17:28:16;24.10;72.80
10042;DHT22;5061;49.068;12.058;2022-08-23T17:31:37;24.00;73.20
10042;DHT22;5061;49.068;12.058;2022-08-23T17:34:58;23.90;73.50
10042;DHT22;5061;49.068;12.058;2022-08-23T17:38:19;23.80;73.70
10042;DHT22;5061;49.068;12.058;2022-08-23T17:41:40;23.70;73.90
10042;DHT22;5061;49.068;12.058;2022-08-23T17:45:02;23.70;74.30
10042;DHT22;5061;49.068;12.058;2022-08-23T17:48:23;23.50;74.40
10042;DHT22;5061;49.068;12.058;2022-08-23T17:51:44;23.50;74.80
10042;DHT22;5061;49.068;12.058;2022-08-23T17:55:05;23.40;75.00
10042;DHT22;5061;49.068;12.058;2022-08-23T17:58:26;23.30;75.20
10042;DHT22;5061;49.068;12.058;2022-08-23T18:01:48;23.20;75.50
10042;DHT22;5061;49.068;12.058;2022-08-23T18:05:09;23.10;75.80
10042;DHT22;5061;49.068;12.058;2022-08-23T18:08:30;23.00;75.90
10042;DHT22;5061;49.068;12.058;2022-08-23T18:11:51;22.90;76.20
10042;DHT22;5061;49.068;12.058;2022-08-23T18:15:12;22.90;76.50
10042;DHT22;5061;49.068;12.058;2022-08-23T18:18:33;22.80;76.70
10042;DHT22;5061;49.068;12.058;2022-08-23T18:21:54;22.70;76.90
10042;DHT22;5061;49.068;12.058;2022-08-23T18:25:14;22.60;77.10
10042;DHT22;5061;49.068;12.058;2022-08-23T18:28:36;22.50;77.30
10042;DHT22;5061;49.068;12.058;2022-08-23T18:31:57;22.50;77.70
10042;DHT22;5061;49.068;12.058;2022-08-23T18:35:18;22.40;77.90
10042;DHT22;5061;49.068;12.058;2022-08-23T18:38:39;22.30;78.10
10042;DHT22;5061;49.068;12.058;2022-08-23T18:42:01;22.30;78.40
10042;DHT22;5061;49.068;12.058;2022-08-23T18:45:22;22.20;78.60
10042;DHT22;5061;49.068;12.058;2022-08-23T18:48:43;22.10;78.80
10042;DHT22;5061;49.068;12.058;2022-08-23T18:52:04;22.00;79.00
10042;DHT22;5061;49.068;12.058;2022-08-23T18:55:25;21.90;79.30
10042;DHT22;5061;49.068;12.058;2022-08-23T18:58:46;21.70;79.50
10042;DHT22;5061;49.068;12.058;2022-08-23T19:02:07;21.60;79.90
10042;DHT22;5061;49.068;12.058;2022-08-23T19:05:28;21.50;80.00
10042;DHT22;5061;49.068;12.058;2022-08-23T19:08:48;21.50;80.40
10042;DHT22;5061;49.068;12.058;2022-08-23T19:12:10;21.40;80.60
10042;DHT22;5061;49.068;12.058;2022-08-23T19:15:33;21.30;80.80
10042;DHT22;5061;49.068;12.058;2022-08-23T19:18:54;21.20;81.80
10042;DHT22;5061;49.068;12.058;2022-08-23T19:22:15;21.10;81.30
10042;DHT22;5061;49.068;12.058;2022-08-23T19:25:36;21.00;81.60
10042;DHT22;5061;49.068;12.058;2022-08-23T19:28:59;21.00;82.00
10042;DHT22;5061;49.068;12.058;2022-08-23T19:32:20;20.90;82.20
10042;DHT22;5061;49.068;12.058;2022-08-23T19:35:40;20.80;82.40
10042;DHT22;5061;49.068;12.058;2022-08-23T19:39:03;20.70;83.30
10042;DHT22;5061;49.068;12.058;2022-08-23T19:42:24;20.70;82.90
10042;DHT22;5061;49.068;12.058;2022-08-23T19:45:45;20.60;83.20
10042;DHT22;5061;49.068;12.058;2022-08-23T19:49:07;20.60;83.50
10042;DHT22;5061;49.068;12.058;2022-08-23T19:52:28;20.50;83.70
10042;DHT22;5061;49.068;12.058;2022-08-23T19:55:49;20.40;83.90
10042;DHT22;5061;49.068;12.058;2022-08-23T19:59:13;20.40;84.40
10042;DHT22;5061;49.068;12.058;2022-08-23T20:02:34;20.30;84.50
10042;DHT22;5061;49.068;12.058;2022-08-23T20:05:55;20.30;84.80
10042;DHT22;5061;49.068;12.058;2022-08-23T20:09:17;20.20;85.00
10042;DHT22;5061;49.068;12.058;2022-08-23T20:12:38;20.20;85.30
10042;DHT22;5061;49.068;12.058;2022-08-23T20:16:01;20.10;85.50
10042;DHT22;5061;49.068;12.058;2022-08-23T20:19:21;20.10;86.00
10042;DHT22;5061;49.068;12.058;2022-08-23T20:22:43;20.00;86.10
10042;DHT22;5061;49.068;12.058;2022-08-23T20:26:22;20.00;86.40
10042;DHT22;5061;49.068;12.058;2022-08-23T20:29:46;20.00;86.80
10042;DHT22;5061;49.068;12.058;2022-08-23T20:33:06;20.00;87.00
10042;DHT22;5061;49.068;12.058;2022-08-23T20:36:27;19.90;87.10
10042;DHT22;5061;49.068;12.058;2022-08-23T20:39:48;19.90;87.40
10042;DHT22;5061;49.068;12.058;2022-08-23T20:43:11;19.90;87.60
10042;DHT22;5061;49.068;12.058;2022-08-23T20:46:32;19.80;87.70
10042;DHT22;5061;49.068;12.058;2022-08-23T20:49:53;19.90;88.20
10042;DHT22;5061;49.068;12.058;2022-08-23T20:53:13;19.80;88.20
10042;DHT22;5061;49.068;12.058;2022-08-23T20:56:35;19.80;88.60
10042;DHT22;5061;49.068;12.058;2022-08-23T20:59:56;19.70;88.70
10042;DHT22;5061;49.068;12.058;2022-08-23T21:03:17;19.70;88.80
10042;DHT22;5061;49.068;12.058;2022-08-23T21:06:47;19.60;89.20
10042;DHT22;5061;49.068;12.058;2022-08-23T21:10:11;19.60;89.20
10042;DHT22;5061;49.068;12.058;2022-08-23T21:13:31;19.60;89.40
10042;DHT22;5061;49.068;12.058;2022-08-23T21:16:52;19.60;89.60
10042;DHT22;5061;49.068;12.058;2022-08-23T21:20:13;19.50;89.70
10042;DHT22;5061;49.068;12.058;2022-08-23T21:23:34;19.50;90.00
10042;DHT22;5061;49.068;12.058;2022-08-23T21:26:54;19.50;90.00
10042;DHT22;5061;49.068;12.058;2022-08-23T21:30:15;19.40;90.00
10042;DHT22;5061;49.068;12.058;2022-08-23T21:33:35;19.40;90.40
10042;DHT22;5061;49.068;12.058;2022-08-23T21:36:56;19.30;90.20
10042;DHT22;5061;49.068;12.058;2022-08-23T21:40:17;19.30;90.30
10042;DHT22;5061;49.068;12.058;2022-08-23T21:43:38;19.30;90.40
10042;DHT22;5061;49.068;12.058;2022-08-23T21:46:58;19.20;90.40
10042;DHT22;5061;49.068;12.058;2022-08-23T21:50:19;19.20;90.50
10042;DHT22;5061;49.068;12.058;2022-08-23T21:53:40;19.20;90.60
10042;DHT22;5061;49.068;12.058;2022-08-23T21:57:00;19.10;90.60
10042;DHT22;5061;49.068;12.058;2022-08-23T22:00:21;19.00;90.60
10042;DHT22;5061;49.068;12.058;2022-08-23T22:03:42;18.90;90.70
10042;DHT22;5061;49.068;12.058;2022-08-23T22:07:03;18.90;90.80
10042;DHT22;5061;49.068;12.058;2022-08-23T22:10:23;18.80;90.80
10042;DHT22;5061;49.068;12.058;2022-08-23T22:13:44;18.80;90.90
10042;DHT22;5061;49.068;12.058;2022-08-23T22:17:05;18.70;91.00
10042;DHT22;5061;49.068;12.058;2022-08-23T22:20:27;18.70;91.10
10042;DHT22;5061;49.068;12.058;2022-08-23T22:23:48;18.60;91.10
10042;DHT22;5061;49.068;12.058;2022-08-23T22:27:08;18.50;91.20
10042;DHT22;5061;49.068;12.058;2022-08-23T22:30:29;18.50;91.30
10042;DHT22;5061;49.068;12.058;2022-08-23T22:33:50;18.40;91.40
10042;DHT22;5061;49.068;12.058;2022-08-23T22:37:11;18.40;91.50
10042;DHT22;5061;49.068;12.058;2022-08-23T22:40:31;18.30;91.50
10042;DHT22;5061;49.068;12.058;2022-08-23T22:43:57;18.30;91.60
10042;DHT22;5061;49.068;12.058;2022-08-23T22:47:18;18.30;91.70
10042;DHT22;5061;49.068;12.058;2022-08-23T22:50:39;18.20;91.70
10042;DHT22;5061;49.068;12.058;2022-08-23T22:54:06;18.20;91.70
10042;DHT22;5061;49.068;12.058;2022-08-23T22:57:27;18.10;91.80
10042;DHT22;5061;49.068;12.058;2022-08-23T23:00:47;18.10;91.90